Time;durP1;ratioP1;P1;durP2;ratioP2;P2;SDS_P1;SDS_P2;PMS_P1;PMS_P2;Temp;Humidity;BMP_temperature;BMP_pressure;BME280_temperature;BME280_humidity;BME280_pressure;Samples;Min_cycle;Max_cycle;Signal;HPM_P1;HPM_P2
2022/04/04 00:00:02;;;;;;;3.50;2.00;;;;;;;;;;5106534;27;20035;-76
2022/04/04 00:02:28;;;;;;;3.33;2.05;;;;;;;;;;5106107;27;20042;-74
2022/04/04 00:04:54;;;;;;;4.72;1.77;;;;;;;;;;5104681;27;20023;-74
2022/04/04 00:07:20;;;;;;;7.15;2.28;;;;;;;;;;5105577;27;20067;-73
2022/04/04 00:09:46;;;;;;;6.68;2.40;;;;;;;;;;5083380;27;20051;-74
2022/04/04 00:12:12;;;;;;;4.28;2.20;;;;;;;;;;5103997;27;20042;-74
2022/04/04 00:14:38;;;;;;;5.25;2.38;;;;;;;;;;5104610;27;20046;-73
2022/04/04 00:17:05;;;;;;;4.78;2.00;;;;;;;;;;5102980;27;20482;-75
2022/04/04 00:19:31;;;;;;;4.10;1.80;;;;;;;;;;5104305;27;20035;-71
2022/04/04 00:21:57;;;;;;;4.15;2.30;;;;;;;;;;5104219;27;20493;-73
2022/04/04 00:24:23;;;;;;;4.35;2.70;;;;;;;;;;5102934;28;20337;-73
2022/04/04 00:26:49;;;;;;;7.10;2.83;;;;;;;;;;5104324;27;20084;-75
2022/04/04 00:29:15;;;;;;;9.23;3.17;;;;;;;;;;5104254;27;20435;-74
2022/04/04 00:31:41;;;;;;;4.55;2.53;;;;;;;;;;5102675;27;20053;-73
2022/04/04 00:34:07;;;;;;;5.63;3.15;;;;;;;;;;5104637;27;20031;-72
2022/04/04 00:36:33;;;;;;;4.38;2.83;;;;;;;;;;5086978;27;20038;-73
2022/04/04 00:38:59;;;;;;;7.63;3.38;;;;;;;;;;5102773;27;20035;-74
2022/04/04 00:41:25;;;;;;;4.85;3.15;;;;;;;;;;5087476;27;20087;-74
2022/04/04 00:43:52;;;;;;;5.00;2.92;;;;;;;;;;5103048;27;20039;-75
2022/04/04 00:46:18;;;;;;;7.28;2.92;;;;;;;;;;5102655;28;20061;-75
2022/04/04 00:48:44;;;;;;;3.65;2.22;;;;;;;;;;5104726;27;20039;-74
2022/04/04 00:51:10;;;;;;;4.72;2.72;;;;;;;;;;5103279;27;20045;-73
2022/04/04 00:53:36;;;;;;;5.95;2.70;;;;;;;;;;5103129;27;20038;-73
2022/04/04 00:56:03;;;;;;;5.80;2.80;;;;;;;;;;5087154;27;20482;-74
2022/04/04 00:58:30;;;;;;;5.22;2.78;;;;;;;;;;5102662;28;20487;-75
2022/04/04 01:00:56;;;;;;;6.35;3.03;;;;;;;;;;5102661;27;20040;-75
2022/04/04 01:03:22;;;;;;;5.15;3.00;;;;;;;;;;5086944;27;20031;-73
2022/04/04 01:05:48;;;;;;;4.97;3.17;;;;;;;;;;5085311;27;20042;-74
2022/04/04 01:08:17;;;;;;;3.60;2.95;;;;;;;;;;5102920;27;20039;-73
2022/04/04 01:10:43;;;;;;;7.88;3.55;;;;;;;;;;5087219;27;20042;-75
2022/04/04 01:13:10;;;;;;;8.07;3.25;;;;;;;;;;5102240;27;20039;-75
2022/04/04 01:15:36;;;;;;;8.15;3.53;;;;;;;;;;5102692;27;20502;-76
2022/04/04 01:18:03;;;;;;;6.70;3.60;;;;;;;;;;5103610;27;20544;-74
2022/04/04 01:20:29;;;;;;;6.88;3.38;;;;;;;;;;5085235;28;20447;-76
2022/04/04 01:22:55;;;;;;;7.43;3.30;;;;;;;;;;5102705;27;20031;-74
2022/04/04 01:25:31;;;;;;;7.07;3.92;;;;;;;;;;5086790;28;20398;-75
2022/04/04 01:27:57;;;;;;;8.23;4.00;;;;;;;;;;5086326;27;20040;-73
2022/04/04 01:30:24;;;;;;;10.15;4.15;;;;;;;;;;5101489;28;20498;-74
2022/04/04 01:32:50;;;;;;;8.48;3.75;;;;;;;;;;5104484;27;20038;-73
2022/04/04 01:35:17;;;;;;;11.82;4.75;;;;;;;;;;5104767;28;20044;-75
2022/04/04 01:37:43;;;;;;;8.48;4.15;;;;;;;;;;5101826;27;20126;-75
2022/04/04 01:40:10;;;;;;;8.82;4.88;;;;;;;;;;5102998;28;20407;-75
2022/04/04 01:42:37;;;;;;;9.13;4.38;;;;;;;;;;5102694;28;20063;-72
2022/04/04 01:45:04;;;;;;;8.75;4.50;;;;;;;;;;5101473;28;20154;-70
2022/04/04 01:47:30;;;;;;;12.88;5.70;;;;;;;;;;5102892;28;20435;-72
2022/04/04 01:49:56;;;;;;;13.63;5.90;;;;;;;;;;5102871;28;20402;-74
2022/04/04 01:52:22;;;;;;;10.07;4.80;;;;;;;;;;5101370;28;20082;-75
2022/04/04 01:54:48;;;;;;;9.75;4.75;;;;;;;;;;5103481;28;20544;-73
2022/04/04 01:57:14;;;;;;;13.05;6.00;;;;;;;;;;5107074;27;20043;-71
2022/04/04 01:59:40;;;;;;;11.90;6.55;;;;;;;;;;5106615;27;20084;-73
2022/04/04 02:02:06;;;;;;;11.63;6.35;;;;;;;;;;5105079;27;20047;-75
2022/04/04 02:04:32;;;;;;;11.63;7.30;;;;;;;;;;5089281;27;20032;-76
2022/04/04 02:06:59;;;;;;;15.98;6.47;;;;;;;;;;5105842;27;20035;-74
2022/04/04 02:09:25;;;;;;;10.60;6.40;;;;;;;;;;5088131;27;20035;-76
2022/04/04 02:11:51;;;;;;;14.43;7.00;;;;;;;;;;5106724;27;20068;-75
2022/04/04 02:14:17;;;;;;;13.35;7.15;;;;;;;;;;5106934;27;20535;-76
2022/04/04 02:16:45;;;;;;;15.13;8.10;;;;;;;;;;5105353;27;20491;-75
2022/04/04 02:19:11;;;;;;;13.35;7.00;;;;;;;;;;5106710;27;20046;-77
2022/04/04 02:21:37;;;;;;;13.13;6.88;;;;;;;;;;5106743;27;20096;-75
2022/04/04 02:24:04;;;;;;;14.63;8.48;;;;;;;;;;5102455;27;20036;-73
2022/04/04 02:26:30;;;;;;;13.50;7.50;;;;;;;;;;5106751;27;20430;-72
2022/04/04 02:28:56;;;;;;;15.13;7.47;;;;;;;;;;5089352;27;20035;-74
2022/04/04 02:31:22;;;;;;;10.68;6.65;;;;;;;;;;5104844;28;20040;-74
2022/04/04 02:33:48;;;;;;;16.90;7.28;;;;;;;;;;5104219;28;20122;-74
2022/04/04 02:36:14;;;;;;;12.38;7.15;;;;;;;;;;5097018;28;20626;-72
2022/04/04 02:38:40;;;;;;;12.93;7.75;;;;;;;;;;5080221;28;20048;-72
2022/04/04 02:41:06;;;;;;;14.95;7.38;;;;;;;;;;5079608;28;20078;-75
2022/04/04 02:43:32;;;;;;;14.52;7.82;;;;;;;;;;5096753;28;20452;-74
2022/04/04 02:45:58;;;;;;;14.98;7.70;;;;;;;;;;5079936;28;20040;-75
2022/04/04 02:48:24;;;;;;;16.10;7.43;;;;;;;;;;5080144;28;20084;-72
2022/04/04 02:50:52;;;;;;;13.10;7.75;;;;;;;;;;5096711;28;20039;-74
2022/04/04 02:53:18;;;;;;;19.63;8.75;;;;;;;;;;5079795;28;20104;-72
2022/04/04 02:58:28;;;;;;;15.57;7.75;;;;;;;;;;5096357;28;20051;-75
2022/04/04 03:00:55;;;;;;;10.65;6.65;;;;;;;;;;5096483;28;20040;-72
2022/04/04 03:03:21;;;;;;;12.95;6.10;;;;;;;;;;5096461;28;20038;-73
2022/04/04 03:05:47;;;;;;;13.05;7.40;;;;;;;;;;5096678;28;20031;-73
2022/04/04 03:08:13;;;;;;;14.38;6.28;;;;;;;;;;5079566;28;20290;-72
2022/04/04 03:10:39;;;;;;;16.90;7.30;;;;;;;;;;5079461;28;20069;-77
2022/04/04 03:13:05;;;;;;;16.25;7.22;;;;;;;;;;5079769;28;20070;-73
2022/04/04 03:15:34;;;;;;;13.93;6.57;;;;;;;;;;5096482;28;20039;-75
2022/04/04 03:18:00;;;;;;;17.63;7.82;;;;;;;;;;5096205;28;20509;-76
2022/04/04 03:20:26;;;;;;;13.25;7.05;;;;;;;;;;5079250;28;20544;-72
2022/04/04 03:22:55;;;;;;;9.88;5.75;;;;;;;;;;5096187;28;20043;-73
2022/04/04 03:25:21;;;;;;;13.88;6.63;;;;;;;;;;5079243;28;20422;-78
2022/04/04 03:27:48;;;;;;;11.15;6.82;;;;;;;;;;5096366;28;20031;-70
2022/04/04 03:30:17;;;;;;;12.20;7.20;;;;;;;;;;5079139;28;20152;-74
2022/04/04 03:32:44;;;;;;;12.38;6.25;;;;;;;;;;5096337;28;20043;-73
2022/04/04 03:35:10;;;;;;;15.77;7.85;;;;;;;;;;5079325;28;20044;-73
2022/04/04 03:37:37;;;;;;;14.40;7.70;;;;;;;;;;5079376;28;20047;-73
2022/04/04 03:40:04;;;;;;;17.70;7.72;;;;;;;;;;5078870;28;20042;-71
2022/04/04 03:42:30;;;;;;;16.38;7.40;;;;;;;;;;5078665;28;20051;-73
2022/04/04 03:44:56;;;;;;;16.00;8.30;;;;;;;;;;5079047;28;20040;-76
2022/04/04 03:47:22;;;;;;;15.52;8.25;;;;;;;;;;5078797;28;20459;-76
2022/04/04 03:49:48;;;;;;;14.68;8.32;;;;;;;;;;5078910;28;20122;-73
2022/04/04 03:52:15;;;;;;;12.98;6.97;;;;;;;;;;5078673;28;20043;-75
2022/04/04 03:54:42;;;;;;;20.35;7.70;;;;;;;;;;5095501;28;20043;-74
2022/04/04 03:57:08;;;;;;;13.27;7.18;;;;;;;;;;5095353;28;20075;-74
2022/04/04 03:59:34;;;;;;;16.08;8.40;;;;;;;;;;5095317;28;20040;-73
2022/04/04 04:02:00;;;;;;;16.50;8.13;;;;;;;;;;5095501;28;20125;-74
2022/04/04 04:04:26;;;;;;;14.88;7.70;;;;;;;;;;5095768;28;20453;-75
2022/04/04 04:06:52;;;;;;;18.08;8.10;;;;;;;;;;5095283;28;20118;-73
2022/04/04 04:09:18;;;;;;;15.57;7.97;;;;;;;;;;5078387;28;20174;-74
2022/04/04 04:11:44;;;;;;;18.48;8.20;;;;;;;;;;5095253;28;20407;-74
2022/04/04 04:14:11;;;;;;;20.75;8.57;;;;;;;;;;5095083;28;20047;-73
2022/04/04 04:16:37;;;;;;;14.98;7.20;;;;;;;;;;5078192;28;20039;-73
2022/04/04 04:19:03;;;;;;;16.80;7.85;;;;;;;;;;5094805;28;20364;-75
2022/04/04 04:21:29;;;;;;;16.88;8.00;;;;;;;;;;5078118;28;20127;-76
2022/04/04 04:23:55;;;;;;;18.38;8.73;;;;;;;;;;5078560;28;20501;-76
2022/04/04 04:26:21;;;;;;;19.13;9.00;;;;;;;;;;5094806;28;20127;-72
2022/04/04 04:28:48;;;;;;;15.15;8.18;;;;;;;;;;5095408;28;20043;-76
2022/04/04 04:31:16;;;;;;;14.02;8.95;;;;;;;;;;5094839;28;20047;-75
2022/04/04 04:33:43;;;;;;;14.40;7.53;;;;;;;;;;5095052;28;20039;-77
2022/04/04 04:36:09;;;;;;;18.27;9.15;;;;;;;;;;5094864;28;20043;-72
2022/04/04 04:38:35;;;;;;;15.68;8.45;;;;;;;;;;5094885;28;20043;-76
2022/04/04 04:41:01;;;;;;;18.15;8.15;;;;;;;;;;5077812;28;20406;-79
2022/04/04 04:43:28;;;;;;;13.48;7.95;;;;;;;;;;5077892;28;20043;-73
2022/04/04 04:45:54;;;;;;;17.20;9.02;;;;;;;;;;5094781;28;20433;-75
2022/04/04 04:48:20;;;;;;;15.15;8.60;;;;;;;;;;5077929;28;20046;-75
2022/04/04 04:50:47;;;;;;;17.67;9.13;;;;;;;;;;5077831;28;20044;-75
2022/04/04 04:53:13;;;;;;;15.93;8.52;;;;;;;;;;5077858;28;20042;-75
2022/04/04 04:55:39;;;;;;;16.75;8.45;;;;;;;;;;5077553;28;20040;-74
2022/04/04 04:58:05;;;;;;;20.88;9.63;;;;;;;;;;5094604;28;20418;-75
2022/04/04 05:00:31;;;;;;;13.63;7.82;;;;;;;;;;5077646;28;20031;-76
2022/04/04 05:05:43;;;;;;;16.42;8.07;;;;;;;;;;5094526;28;20097;-70
2022/04/04 05:08:09;;;;;;;20.35;9.27;;;;;;;;;;5077806;28;20074;-75
2022/04/04 05:10:35;;;;;;;16.83;7.70;;;;;;;;;;5077192;28;20089;-74
2022/04/04 05:13:01;;;;;;;17.48;8.43;;;;;;;;;;5094206;28;20039;-74
2022/04/04 05:15:27;;;;;;;16.20;8.10;;;;;;;;;;5076023;28;20047;-76
2022/04/04 05:17:53;;;;;;;14.57;7.07;;;;;;;;;;5074044;28;20052;-76
2022/04/04 05:20:23;;;;;;;17.27;9.32;;;;;;;;;;5090125;28;20071;-74
2022/04/04 05:22:49;;;;;;;14.88;9.18;;;;;;;;;;5073895;28;20058;-76
2022/04/04 05:25:15;;;;;;;16.95;8.27;;;;;;;;;;5074099;28;20035;-75
2022/04/04 05:27:41;;;;;;;14.20;8.40;;;;;;;;;;5090774;28;20132;-78
2022/04/04 05:30:08;;;;;;;17.73;9.52;;;;;;;;;;5089731;28;20108;-75
2022/04/04 05:32:34;;;;;;;16.92;8.98;;;;;;;;;;5073576;28;20108;-74
2022/04/04 05:35:01;;;;;;;16.33;9.15;;;;;;;;;;5073570;28;20441;-76
2022/04/04 05:37:27;;;;;;;19.00;9.98;;;;;;;;;;5090627;28;20313;-79
2022/04/04 05:39:53;;;;;;;16.65;9.30;;;;;;;;;;5090672;28;20036;-73
2022/04/04 05:42:19;;;;;;;18.30;10.15;;;;;;;;;;5090191;28;20097;-75
2022/04/04 05:44:45;;;;;;;19.40;9.90;;;;;;;;;;5073160;28;20074;-76
2022/04/04 05:47:13;;;;;;;17.58;9.13;;;;;;;;;;5073230;28;20089;-72
2022/04/04 05:49:40;;;;;;;20.30;9.93;;;;;;;;;;5073251;28;20055;-74
2022/04/04 05:52:06;;;;;;;19.40;8.85;;;;;;;;;;5090544;28;20051;-73
2022/04/04 05:54:32;;;;;;;17.30;9.35;;;;;;;;;;5090051;28;20047;-73
2022/04/04 05:56:59;;;;;;;18.35;9.63;;;;;;;;;;5073192;28;20050;-74
2022/04/04 05:59:28;;;;;;;20.08;11.02;;;;;;;;;;5073479;28;20044;-76
2022/04/04 06:01:55;;;;;;;16.08;8.80;;;;;;;;;;5073177;28;20043;-77
2022/04/04 06:04:21;;;;;;;20.27;9.95;;;;;;;;;;5091466;28;20040;-76
2022/04/04 06:06:47;;;;;;;19.10;8.85;;;;;;;;;;5091481;28;20665;-74
2022/04/04 06:09:13;;;;;;;17.38;10.32;;;;;;;;;;5090917;28;20045;-71
2022/04/04 06:11:39;;;;;;;18.60;8.60;;;;;;;;;;5090668;28;20449;-73
2022/04/04 06:14:05;;;;;;;16.65;9.68;;;;;;;;;;5073004;28;20495;-74
2022/04/04 06:16:31;;;;;;;18.58;9.80;;;;;;;;;;5090236;28;20504;-75
2022/04/04 06:18:57;;;;;;;19.30;11.02;;;;;;;;;;5090082;28;20045;-73
2022/04/04 06:21:23;;;;;;;20.02;11.38;;;;;;;;;;5089657;28;20050;-73
2022/04/04 06:23:49;;;;;;;19.20;9.65;;;;;;;;;;5072977;28;20044;-76
2022/04/04 06:26:15;;;;;;;17.52;9.93;;;;;;;;;;5090425;28;20544;-76
2022/04/04 06:28:41;;;;;;;14.20;7.82;;;;;;;;;;5073342;28;20479;-76
2022/04/04 06:31:07;;;;;;;17.88;9.50;;;;;;;;;;5073278;28;20411;-77
2022/04/04 06:33:34;;;;;;;17.55;9.35;;;;;;;;;;5072868;28;20491;-74
2022/04/04 06:36:00;;;;;;;18.73;9.55;;;;;;;;;;5090227;28;20048;-73
2022/04/04 06:38:26;;;;;;;15.25;8.10;;;;;;;;;;5072915;28;20058;-73
2022/04/04 06:40:52;;;;;;;19.83;9.90;;;;;;;;;;5089511;28;20039;-75
2022/04/04 06:43:19;;;;;;;18.38;10.18;;;;;;;;;;5079595;28;20043;-76
2022/04/04 06:45:46;;;;;;;17.33;9.40;;;;;;;;;;5096748;28;20275;-76
2022/04/04 06:48:12;;;;;;;16.40;8.55;;;;;;;;;;5080253;28;20471;-75
2022/04/04 06:50:38;;;;;;;16.63;10.10;;;;;;;;;;5097157;28;20040;-73
2022/04/04 06:53:04;;;;;;;16.90;8.90;;;;;;;;;;5096956;28;20126;-72
2022/04/04 06:55:33;;;;;;;18.48;9.25;;;;;;;;;;5080033;28;20477;-75
2022/04/04 06:58:00;;;;;;;15.77;8.85;;;;;;;;;;5080211;28;20047;-78
2022/04/04 07:00:26;;;;;;;19.15;9.45;;;;;;;;;;5096512;28;20123;-74
2022/04/04 07:02:53;;;;;;;16.35;9.13;;;;;;;;;;5079726;28;20474;-74
2022/04/04 07:05:19;;;;;;;17.80;8.52;;;;;;;;;;5079697;28;20122;-74
2022/04/04 07:07:46;;;;;;;14.48;8.00;;;;;;;;;;5096468;28;20531;-72
2022/04/04 07:10:12;;;;;;;14.25;7.90;;;;;;;;;;5096522;28;20074;-75
2022/04/04 07:12:42;;;;;;;14.98;8.02;;;;;;;;;;5096759;28;20039;-72
2022/04/04 07:15:08;;;;;;;14.23;8.60;;;;;;;;;;5079563;28;20044;-74
2022/04/04 07:17:34;;;;;;;16.45;8.48;;;;;;;;;;5096178;28;20054;-73
2022/04/04 07:20:00;;;;;;;18.13;9.55;;;;;;;;;;5096071;28;20119;-75
2022/04/04 07:22:26;;;;;;;14.05;8.18;;;;;;;;;;5096419;28;20099;-74
2022/04/04 07:24:52;;;;;;;21.42;10.13;;;;;;;;;;5087162;27;20042;-75
2022/04/04 07:27:18;;;;;;;11.13;7.75;;;;;;;;;;5089205;27;20031;-70
2022/04/04 07:29:44;;;;;;;18.70;9.93;;;;;;;;;;5104762;27;20479;-74
2022/04/04 07:32:10;;;;;;;16.05;9.00;;;;;;;;;;5104199;27;20050;-75
2022/04/04 07:34:37;;;;;;;20.45;9.98;;;;;;;;;;5105762;27;20042;-73
2022/04/04 07:37:04;;;;;;;17.40;9.95;;;;;;;;;;5104386;27;20047;-73
2022/04/04 07:39:30;;;;;;;22.35;9.77;;;;;;;;;;5103940;27;20043;-74
2022/04/04 07:41:56;;;;;;;13.90;8.88;;;;;;;;;;5105987;27;20439;-76
2022/04/04 07:44:22;;;;;;;16.02;8.80;;;;;;;;;;5104124;27;20032;-74
2022/04/04 07:46:48;;;;;;;17.58;10.40;;;;;;;;;;5104514;27;20031;-72
2022/04/04 07:49:14;;;;;;;12.05;8.18;;;;;;;;;;5088707;27;20046;-73
2022/04/04 07:51:40;;;;;;;19.00;9.88;;;;;;;;;;5086663;27;20581;-73
2022/04/04 07:54:06;;;;;;;16.42;9.45;;;;;;;;;;5103542;27;20387;-72
2022/04/04 07:56:31;;;;;;;18.23;8.90;;;;;;;;;;5105611;27;20376;-76
2022/04/04 07:59:00;;;;;;;15.70;8.43;;;;;;;;;;5101186;28;20046;-73
2022/04/04 08:01:26;;;;;;;14.88;9.80;;;;;;;;;;5104295;27;20441;-75
2022/04/04 08:03:52;;;;;;;17.48;9.07;;;;;;;;;;5088487;27;20126;-72
2022/04/04 08:06:19;;;;;;;15.80;9.00;;;;;;;;;;5103500;27;20290;-74
2022/04/04 08:08:45;;;;;;;14.50;8.68;;;;;;;;;;5104339;27;20039;-76
2022/04/04 08:11:11;;;;;;;13.55;8.85;;;;;;;;;;5105239;27;20111;-76
2022/04/04 08:13:42;;;;;;;16.35;8.50;;;;;;;;;;5102535;27;20577;-75
2022/04/04 08:16:09;;;;;;;15.63;9.60;;;;;;;;;;5104480;27;20043;-72
2022/04/04 08:18:35;;;;;;;14.23;8.07;;;;;;;;;;5102900;28;20036;-74
2022/04/04 08:21:01;;;;;;;16.33;9.18;;;;;;;;;;5104688;27;20070;-76
2022/04/04 08:23:31;;;;;;;14.00;9.10;;;;;;;;;;5104298;27;20070;-76
2022/04/04 08:25:57;;;;;;;14.07;8.27;;;;;;;;;;5102418;27;20039;-78
2022/04/04 08:28:23;;;;;;;17.45;8.98;;;;;;;;;;5103937;27;20554;-75
2022/04/04 08:30:52;;;;;;;17.38;8.38;;;;;;;;;;5102168;27;20407;-75
2022/04/04 08:33:18;;;;;;;14.55;8.63;;;;;;;;;;5104772;27;20045;-74
2022/04/04 08:35:45;;;;;;;11.68;7.35;;;;;;;;;;5086549;27;20142;-74
2022/04/04 08:38:11;;;;;;;15.27;7.55;;;;;;;;;;5102431;27;20086;-74
2022/04/04 08:40:38;;;;;;;11.20;6.88;;;;;;;;;;5104527;27;20523;-71
2022/04/04 08:43:04;;;;;;;12.40;6.57;;;;;;;;;;5085734;27;20043;-70
2022/04/04 08:45:31;;;;;;;9.65;6.22;;;;;;;;;;5085674;27;20031;-70
2022/04/04 08:47:58;;;;;;;12.63;7.15;;;;;;;;;;5104621;27;20066;-75
2022/04/04 08:50:25;;;;;;;13.38;7.07;;;;;;;;;;5086103;27;20179;-75
2022/04/04 08:52:51;;;;;;;9.52;6.75;;;;;;;;;;5102698;27;20039;-73
2022/04/04 08:55:17;;;;;;;10.48;6.13;;;;;;;;;;5104332;27;20035;-77
2022/04/04 08:57:43;;;;;;;10.35;6.18;;;;;;;;;;5084709;27;20079;-72
2022/04/04 09:00:10;;;;;;;9.00;5.90;;;;;;;;;;5103869;27;20036;-74
2022/04/04 09:02:36;;;;;;;10.10;5.13;;;;;;;;;;5102390;28;20080;-74
2022/04/04 09:05:07;;;;;;;9.90;6.00;;;;;;;;;;5103991;27;20140;-72
2022/04/04 09:07:33;;;;;;;8.40;4.23;;;;;;;;;;5104183;27;20046;-74
2022/04/04 09:10:00;;;;;;;5.50;3.53;;;;;;;;;;5102017;27;20277;-73
2022/04/04 09:12:26;;;;;;;6.88;4.25;;;;;;;;;;5103225;27;20031;-74
2022/04/04 09:14:54;;;;;;;5.88;3.72;;;;;;;;;;5103916;28;20034;-75
2022/04/04 09:17:22;;;;;;;4.30;3.00;;;;;;;;;;5082749;28;20126;-72
2022/04/04 09:19:48;;;;;;;6.03;3.25;;;;;;;;;;5102605;27;20053;-74
2022/04/04 09:22:18;;;;;;;6.10;2.83;;;;;;;;;;5087307;27;20113;-74
2022/04/04 09:24:47;;;;;;;4.40;2.55;;;;;;;;;;5085519;28;20088;-77
2022/04/04 09:27:14;;;;;;;3.97;2.75;;;;;;;;;;5102132;27;20031;-73
2022/04/04 09:29:41;;;;;;;5.38;2.80;;;;;;;;;;5099137;28;20479;-73
2022/04/04 09:32:11;;;;;;;3.47;2.65;;;;;;;;;;5101989;27;20092;-76
2022/04/04 09:34:57;;;;;;;2.58;1.88;;;;;;;;;;5101207;28;20032;-77
2022/04/04 09:37:24;;;;;;;4.78;2.03;;;;;;;;;;5083467;27;20089;-74
2022/04/04 09:39:50;;;;;;;4.53;2.08;;;;;;;;;;5102686;28;20091;-72
2022/04/04 09:42:17;;;;;;;3.78;1.98;;;;;;;;;;5086383;28;20469;-73
2022/04/04 09:44:56;;;;;;;3.05;1.83;;;;;;;;;;5084516;28;20043;-72
2022/04/04 09:47:23;;;;;;;2.67;1.95;;;;;;;;;;5081879;28;20068;-73
2022/04/04 09:49:49;;;;;;;1.75;1.58;;;;;;;;;;5086291;28;20035;-71
2022/04/04 09:52:16;;;;;;;3.03;1.80;;;;;;;;;;5101248;28;20047;-73
2022/04/04 09:54:43;;;;;;;3.80;2.45;;;;;;;;;;5103325;28;20127;-71
2022/04/04 09:57:13;;;;;;;5.05;2.00;;;;;;;;;;5102759;28;20097;-71
2022/04/04 09:59:41;;;;;;;5.68;1.90;;;;;;;;;;5098513;28;20047;-71
2022/04/04 10:02:07;;;;;;;2.25;1.35;;;;;;;;;;5102416;28;20042;-72
2022/04/04 10:04:33;;;;;;;3.72;2.15;;;;;;;;;;5086837;28;20104;-71
2022/04/04 10:07:04;;;;;;;3.53;1.73;;;;;;;;;;5098535;28;20081;-74
2022/04/04 10:09:30;;;;;;;5.43;2.00;;;;;;;;;;5102648;28;20027;-74
2022/04/04 10:11:57;;;;;;;5.72;1.85;;;;;;;;;;5086497;28;20031;-72
2022/04/04 10:14:24;;;;;;;2.85;1.70;;;;;;;;;;5101891;28;20476;-72
2022/04/04 10:16:52;;;;;;;4.93;2.05;;;;;;;;;;5103812;27;20027;-73
2022/04/04 10:19:18;;;;;;;2.75;1.60;;;;;;;;;;5090735;27;20027;-73
2022/04/04 10:21:44;;;;;;;5.05;1.67;;;;;;;;;;5089207;27;20039;-72
2022/04/04 10:24:11;;;;;;;5.05;2.28;;;;;;;;;;5102833;27;20099;-72
2022/04/04 10:26:38;;;;;;;3.55;1.77;;;;;;;;;;5103723;27;20038;-73
2022/04/04 10:29:17;;;;;;;3.65;2.33;;;;;;;;;;5102216;27;20119;-73
2022/04/04 10:31:44;;;;;;;2.30;2.10;;;;;;;;;;5103636;27;20069;-75
2022/04/04 10:34:12;;;;;;;4.63;2.28;;;;;;;;;;5103513;27;20047;-73
2022/04/04 10:36:38;;;;;;;2.95;1.90;;;;;;;;;;5101704;27;20527;-72
2022/04/04 10:39:04;;;;;;;6.53;2.50;;;;;;;;;;5104378;27;20126;-72
2022/04/04 10:41:32;;;;;;;2.60;2.05;;;;;;;;;;5101234;27;20547;-76
2022/04/04 10:43:58;;;;;;;5.15;2.55;;;;;;;;;;5103440;27;20533;-73
2022/04/04 10:46:25;;;;;;;4.68;2.20;;;;;;;;;;5085237;27;20039;-73
2022/04/04 10:49:02;;;;;;;3.13;2.10;;;;;;;;;;5101819;27;20519;-71
2022/04/04 10:51:31;;;;;;;1.52;1.40;;;;;;;;;;5101411;27;20092;-73
2022/04/04 10:53:58;;;;;;;2.55;1.88;;;;;;;;;;5101108;27;20479;-74
2022/04/04 10:56:24;;;;;;;2.45;1.85;;;;;;;;;;5102999;27;20515;-75
2022/04/04 10:58:51;;;;;;;3.67;1.85;;;;;;;;;;5085967;27;20092;-75
2022/04/04 11:01:19;;;;;;;2.55;1.98;;;;;;;;;;5101157;27;20586;-73
2022/04/04 11:03:51;;;;;;;3.45;2.15;;;;;;;;;;5102445;27;20042;-75
2022/04/04 11:09:12;;;;;;;3.38;2.00;;;;;;;;;;5099142;27;20031;-75
2022/04/04 11:11:46;;;;;;;4.00;2.15;;;;;;;;;;5101248;27;20035;-76
2022/04/04 11:14:13;;;;;;;2.50;2.20;;;;;;;;;;5104007;27;20130;-71
2022/04/04 11:16:58;;;;;;;3.28;1.60;;;;;;;;;;5100569;27;20526;-71
2022/04/04 11:19:28;;;;;;;1.98;1.38;;;;;;;;;;5082115;27;20078;-72
2022/04/04 11:21:54;;;;;;;2.17;1.77;;;;;;;;;;5098699;28;20057;-76
2022/04/04 11:24:20;;;;;;;3.15;1.60;;;;;;;;;;5076029;28;20035;-72
2022/04/04 11:26:47;;;;;;;2.03;1.50;;;;;;;;;;5092509;28;20160;-72
2022/04/04 11:29:19;;;;;;;2.03;1.50;;;;;;;;;;5091815;28;20083;-72
2022/04/04 11:31:48;;;;;;;1.67;1.55;;;;;;;;;;5092199;28;20048;-73
2022/04/04 11:34:14;;;;;;;2.65;1.80;;;;;;;;;;5075591;28;20048;-72
2022/04/04 11:36:42;;;;;;;1.95;1.42;;;;;;;;;;5092446;28;20098;-71
2022/04/04 11:39:09;;;;;;;2.47;1.45;;;;;;;;;;5075663;28;20499;-73
2022/04/04 11:41:36;;;;;;;2.00;1.70;;;;;;;;;;5091725;28;20059;-74
2022/04/04 11:44:03;;;;;;;1.58;1.35;;;;;;;;;;5075284;28;20046;-76
2022/04/04 11:46:28;;;;;;;2.25;1.35;;;;;;;;;;5075172;28;20122;-71
2022/04/04 11:48:55;;;;;;;2.92;1.20;;;;;;;;;;5075049;28;20566;-73
2022/04/04 11:51:41;;;;;;;1.30;1.17;;;;;;;;;;5074833;28;20086;-75
2022/04/04 11:54:09;;;;;;;3.25;1.25;;;;;;;;;;5074339;28;20047;-72
2022/04/04 11:56:35;;;;;;;1.95;1.08;;;;;;;;;;5092289;28;20107;-75
2022/04/04 11:59:04;;;;;;;2.60;1.38;;;;;;;;;;5091976;28;20130;-72
2022/04/04 12:01:34;;;;;;;1.67;1.20;;;;;;;;;;5086895;27;20055;-75
2022/04/04 12:04:01;;;;;;;2.90;1.40;;;;;;;;;;5112159;27;20039;-72
2022/04/04 12:06:29;;;;;;;1.70;1.10;;;;;;;;;;5112357;27;20042;-74
2022/04/04 12:08:57;;;;;;;1.95;1.25;;;;;;;;;;5112294;27;20410;-74
2022/04/04 12:11:28;;;;;;;1.63;0.95;;;;;;;;;;5112645;27;20499;-72
2022/04/04 12:13:57;;;;;;;1.10;1.00;;;;;;;;;;5112389;27;20039;-74
2022/04/04 12:16:23;;;;;;;3.15;1.27;;;;;;;;;;5112084;27;20078;-75
2022/04/04 12:18:58;;;;;;;1.40;0.85;;;;;;;;;;5112037;27;20513;-74
2022/04/04 12:21:24;;;;;;;1.85;0.90;;;;;;;;;;5111828;27;20045;-75
2022/04/04 12:26:35;;;;;;;2.30;1.60;;;;;;;;;;5112061;27;20487;-74
2022/04/04 12:29:03;;;;;;;2.58;1.10;;;;;;;;;;5111585;27;20118;-75
2022/04/04 12:31:29;;;;;;;2.67;1.02;;;;;;;;;;5111967;27;20498;-76
2022/04/04 12:34:01;;;;;;;1.05;0.90;;;;;;;;;;5111677;27;20526;-76
2022/04/04 12:36:30;;;;;;;1.00;1.00;;;;;;;;;;5111563;27;20068;-75
2022/04/04 12:39:00;;;;;;;1.23;0.68;;;;;;;;;;5111388;27;20088;-77
2022/04/04 12:41:26;;;;;;;0.70;0.70;;;;;;;;;;5111151;27;20066;-73
2022/04/04 12:44:03;;;;;;;0.80;0.80;;;;;;;;;;5095020;27;20603;-77
2022/04/04 12:46:30;;;;;;;1.73;0.68;;;;;;;;;;5111678;27;20095;-73
2022/04/04 12:49:15;;;;;;;1.88;0.80;;;;;;;;;;5111560;27;20586;-74
2022/04/04 12:51:52;;;;;;;1.92;1.23;;;;;;;;;;5111763;27;20077;-77
2022/04/04 12:54:27;;;;;;;0.90;0.70;;;;;;;;;;5111075;27;20039;-71
2022/04/04 12:56:53;;;;;;;0.98;0.63;;;;;;;;;;5113506;27;20506;-79
2022/04/04 12:59:19;;;;;;;1.27;0.70;;;;;;;;;;5114759;27;20080;-74
2022/04/04 13:02:01;;;;;;;0.50;0.50;;;;;;;;;;5114577;27;20395;-74
2022/04/04 13:04:27;;;;;;;2.10;0.60;;;;;;;;;;5114606;27;20031;-72
2022/04/04 13:06:52;;;;;;;0.43;0.43;;;;;;;;;;5114977;27;20039;-76
2022/04/04 13:09:25;;;;;;;0.95;0.60;;;;;;;;;;5107965;27;20039;-75
2022/04/04 13:11:51;;;;;;;0.68;0.60;;;;;;;;;;5087632;28;20043;-75
2022/04/04 13:14:18;;;;;;;0.50;0.50;;;;;;;;;;5087217;27;20039;-78
2022/04/04 13:16:51;;;;;;;1.63;0.70;;;;;;;;;;5085564;28;20558;-74
2022/04/04 13:19:18;;;;;;;5.18;0.50;;;;;;;;;;5102335;27;20051;-78
2022/04/04 13:21:45;;;;;;;0.77;0.60;;;;;;;;;;5100915;27;20027;-74
2022/04/04 13:24:12;;;;;;;0.50;0.50;;;;;;;;;;5086466;27;20039;-76
2022/04/04 13:26:39;;;;;;;0.75;0.65;;;;;;;;;;5102121;28;20135;-73
2022/04/04 13:29:08;;;;;;;0.63;0.40;;;;;;;;;;5103951;27;20099;-76
2022/04/04 13:31:34;;;;;;;0.43;0.43;;;;;;;;;;5103634;27;20040;-77
2022/04/04 13:34:00;;;;;;;0.68;0.50;;;;;;;;;;5102015;27;20038;-74
2022/04/04 13:36:26;;;;;;;0.40;0.40;;;;;;;;;;5101959;28;20036;-78
2022/04/04 13:38:55;;;;;;;0.65;0.50;;;;;;;;;;5102765;28;20031;-74
2022/04/04 13:41:22;;;;;;;1.27;0.43;;;;;;;;;;5093631;28;20052;-74
2022/04/04 13:43:48;;;;;;;0.63;0.50;;;;;;;;;;5064683;28;20048;-74
2022/04/04 13:46:17;;;;;;;0.55;0.52;;;;;;;;;;5062010;28;20038;-75
2022/04/04 13:48:43;;;;;;;3.25;0.50;;;;;;;;;;5058867;28;20392;-75
2022/04/04 13:51:09;;;;;;;0.68;0.45;;;;;;;;;;5079708;28;20048;-74
2022/04/04 13:53:36;;;;;;;0.30;0.30;;;;;;;;;;5084484;28;20407;-74
2022/04/04 13:56:02;;;;;;;0.55;0.40;;;;;;;;;;5065081;28;20032;-74
2022/04/04 13:58:28;;;;;;;0.40;0.40;;;;;;;;;;5083191;28;20036;-74
2022/04/04 14:00:54;;;;;;;0.80;0.40;;;;;;;;;;5082727;28;20044;-73
2022/04/04 14:03:20;;;;;;;0.52;0.52;;;;;;;;;;5084491;28;20058;-77
2022/04/04 14:05:49;;;;;;;0.80;0.50;;;;;;;;;;5066320;28;20036;-74
2022/04/04 14:08:17;;;;;;;0.63;0.50;;;;;;;;;;5063154;28;20396;-77
2022/04/04 14:10:43;;;;;;;0.88;0.60;;;;;;;;;;5068022;28;20040;-79
2022/04/04 14:13:09;;;;;;;0.70;0.50;;;;;;;;;;5068151;28;20044;-75
2022/04/04 14:15:36;;;;;;;0.95;0.60;;;;;;;;;;5067913;28;20127;-75
2022/04/04 14:18:02;;;;;;;0.93;0.60;;;;;;;;;;5084832;28;20044;-74
2022/04/04 14:20:28;;;;;;;3.42;0.70;;;;;;;;;;5066985;28;20071;-76
2022/04/04 14:22:54;;;;;;;0.40;0.40;;;;;;;;;;5068827;28;20032;-77
2022/04/04 14:25:21;;;;;;;0.40;0.40;;;;;;;;;;5082358;28;20044;-76
2022/04/04 14:27:48;;;;;;;0.70;0.63;;;;;;;;;;5067962;28;20506;-75
2022/04/04 14:30:14;;;;;;;1.15;0.82;;;;;;;;;;5084871;28;20049;-74
2022/04/04 14:32:45;;;;;;;1.08;0.70;;;;;;;;;;5065318;28;20050;-75
2022/04/04 14:35:11;;;;;;;0.90;0.75;;;;;;;;;;5065404;28;20040;-78
2022/04/04 14:37:37;;;;;;;1.17;1.05;;;;;;;;;;5085297;28;20071;-78
2022/04/04 14:40:03;;;;;;;1.58;0.80;;;;;;;;;;5067827;28;20040;-75
2022/04/04 14:42:29;;;;;;;1.85;1.23;;;;;;;;;;5066571;28;20052;-74
2022/04/04 14:44:56;;;;;;;1.83;1.05;;;;;;;;;;5083547;28;20037;-74